Orbital elements of COSMOS 970 DEB
| Launched | 20 December 1977 |
| Flight ended | – |
| Launch site | Tyuratam Missile and Space Center, Kazakhstan (Also known as Baikonur Cosmodrome) |
| Owner | Commonwealth of Independent States (former USSR) |
| NORAD ID | 64971 |
| Date fetched |
Epoch osculation |
Inc. [°] |
Ecc. | RA asc node [hr] |
Arg Peri. [°] |
Mean anom [°] |
Mean motion [rev/day] |
Abs. mag |
| Date fetched |
Epoch osculation |
Inc. [°] |
Ecc. | RA asc node [hr] |
Arg Peri. [°] |
Mean anom [°] |
Mean motion [rev/day] |
Abs. mag |
| 2026 May 03 17:57 | 2026 Apr 30 07:12:56 | 65.8300 | 0.01452 | 14.9780 | 225.8722 | 166.9220 | 13.67916 | – |
| 2026 May 02 17:57 | 2026 Apr 30 07:12:56 | 65.8300 | 0.01452 | 14.9780 | 225.8722 | 166.9220 | 13.67916 | – |
| 2026 May 01 17:56 | 2026 Apr 30 07:12:56 | 65.8300 | 0.01452 | 14.9780 | 225.8722 | 166.9220 | 13.67916 | – |
| 2026 Apr 30 17:56 | 2026 Apr 30 07:12:56 | 65.8300 | 0.01452 | 14.9780 | 225.8722 | 166.9220 | 13.67916 | – |
| 2026 Apr 29 17:57 | 2026 Apr 22 14:54:00 | 65.8301 | 0.01455 | 16.2284 | 229.3945 | 166.9220 | 13.67916 | – |
| 2026 Apr 28 17:56 | 2026 Apr 22 14:54:00 | 65.8301 | 0.01455 | 16.2284 | 229.3945 | 166.9220 | 13.67916 | – |
| 2026 Apr 27 17:58 | 2026 Apr 22 14:54:00 | 65.8301 | 0.01455 | 16.2284 | 229.3945 | 166.9220 | 13.67916 | – |
| 2026 Apr 26 17:58 | 2026 Apr 22 14:54:00 | 65.8301 | 0.01455 | 16.2284 | 229.3945 | 166.9220 | 13.67916 | – |
| 2026 Apr 25 17:58 | 2026 Apr 22 14:54:00 | 65.8301 | 0.01455 | 16.2284 | 229.3945 | 166.9220 | 13.67916 | – |
| 2026 Apr 24 17:59 | 2026 Apr 22 14:54:00 | 65.8301 | 0.01455 | 16.2284 | 229.3945 | 166.9220 | 13.67916 | – |
| 2026 Apr 23 17:57 | 2026 Apr 18 16:06:56 | 65.8295 | 0.01456 | 16.8714 | 231.2115 | 166.9220 | 13.67916 | – |
| 2026 Apr 22 17:57 | 2026 Apr 18 16:06:56 | 65.8295 | 0.01456 | 16.8714 | 231.2115 | 166.9220 | 13.67916 | – |
| 2026 Apr 21 17:57 | 2026 Apr 18 16:06:56 | 65.8295 | 0.01456 | 16.8714 | 231.2115 | 166.9220 | 13.67916 | – |
| 2026 Apr 20 17:57 | 2026 Apr 18 16:06:56 | 65.8295 | 0.01456 | 16.8714 | 231.2115 | 166.9220 | 13.67916 | – |
| 2026 Apr 19 17:58 | 2026 Apr 18 16:06:56 | 65.8295 | 0.01456 | 16.8714 | 231.2115 | 166.9220 | 13.67916 | – |
| 2026 Apr 18 17:56 | 2026 Apr 12 11:03:54 | 65.8288 | 0.01459 | 17.8826 | 234.0648 | 166.9220 | 13.67916 | – |
| 2026 Apr 16 17:57 | 2026 Apr 12 11:03:54 | 65.8288 | 0.01459 | 17.8826 | 234.0648 | 166.9220 | 13.67916 | – |
| 2026 Apr 14 17:57 | 2026 Apr 12 11:03:54 | 65.8288 | 0.01459 | 17.8826 | 234.0648 | 166.9220 | 13.67916 | – |
| 2026 Apr 13 17:57 | 2026 Apr 12 11:03:54 | 65.8288 | 0.01459 | 17.8826 | 234.0648 | 166.9220 | 13.67916 | – |
| 2026 Apr 12 17:57 | 2026 Apr 06 12:56:48 | 65.8290 | 0.01461 | 18.8468 | 236.8032 | 166.9220 | 13.67916 | – |
| 2026 Apr 11 17:57 | 2026 Apr 06 12:56:48 | 65.8290 | 0.01461 | 18.8468 | 236.8032 | 166.9220 | 13.67916 | – |
| 2026 Apr 10 17:58 | 2026 Apr 06 12:56:48 | 65.8290 | 0.01461 | 18.8468 | 236.8032 | 166.9220 | 13.67916 | – |
| 2026 Apr 09 18:01 | 2026 Apr 06 12:56:48 | 65.8290 | 0.01461 | 18.8468 | 236.8032 | 166.9220 | 13.67916 | – |
| 2026 Apr 08 17:57 | 2026 Apr 06 12:56:48 | 65.8290 | 0.01461 | 18.8468 | 236.8032 | 166.9220 | 13.67916 | – |
| 2026 Apr 07 17:57 | 2026 Apr 01 00:13:02 | 65.8296 | 0.01463 | 19.7473 | 239.3641 | 166.9220 | 13.67916 | – |
| 2026 Apr 06 17:57 | 2026 Apr 01 00:13:02 | 65.8296 | 0.01463 | 19.7473 | 239.3641 | 166.9220 | 13.67916 | – |